Time;durP1;ratioP1;P1;durP2;ratioP2;P2;SDS_P1;SDS_P2;PMS_P1;PMS_P2;Temp;Humidity;BMP_temperature;BMP_pressure;BME280_temperature;BME280_humidity;BME280_pressure;Samples;Min_cycle;Max_cycle;Signal;HPM_P1;HPM_P2
2023/09/18 00:00:58;;;;;;;11.00;5.85;;;;;;;;;;5108212;28;20051;-59
2023/09/18 00:03:24;;;;;;;14.50;5.70;;;;;;;;;;5106256;28;20043;-60
2023/09/18 00:05:52;;;;;;;15.93;5.68;;;;;;;;;;5108208;28;20043;-60
2023/09/18 00:08:22;;;;;;;12.05;5.70;;;;;;;;;;5090141;28;20054;-60
2023/09/18 00:10:53;;;;;;;24.33;5.80;;;;;;;;;;5108095;28;20034;-60
2023/09/18 00:13:20;;;;;;;10.57;5.43;;;;;;;;;;5104092;28;20494;-60
2023/09/18 00:15:48;;;;;;;11.15;5.03;;;;;;;;;;5101519;28;20051;-60
2023/09/18 00:18:15;;;;;;;12.02;5.35;;;;;;;;;;5106457;28;20297;-60
2023/09/18 00:20:42;;;;;;;15.63;5.60;;;;;;;;;;5071213;28;23813;-60
2023/09/18 00:23:09;;;;;;;13.63;5.60;;;;;;;;;;5088555;28;20494;-60
2023/09/18 00:25:42;;;;;;;11.98;5.30;;;;;;;;;;5104246;28;20036;-60
2023/09/18 00:28:08;;;;;;;15.10;5.57;;;;;;;;;;5103664;28;20395;-60
2023/09/18 00:30:34;;;;;;;11.52;5.40;;;;;;;;;;5101389;28;20342;-60
2023/09/18 00:33:00;;;;;;;11.73;5.82;;;;;;;;;;5081631;28;20047;-60
2023/09/18 00:35:27;;;;;;;12.27;5.30;;;;;;;;;;5087113;28;21697;-60
2023/09/18 00:37:53;;;;;;;12.20;6.03;;;;;;;;;;5106792;28;20047;-60
2023/09/18 00:40:20;;;;;;;19.75;5.65;;;;;;;;;;5087365;28;20034;-60
2023/09/18 00:42:46;;;;;;;14.43;6.40;;;;;;;;;;5087196;28;20045;-60
2023/09/18 00:45:12;;;;;;;15.85;5.60;;;;;;;;;;5069413;28;20043;-60
2023/09/18 00:47:39;;;;;;;17.25;5.47;;;;;;;;;;5085882;28;20027;-60
2023/09/18 00:50:08;;;;;;;15.98;5.10;;;;;;;;;;5105816;28;20050;-60
2023/09/18 00:52:34;;;;;;;18.05;5.57;;;;;;;;;;5104072;28;20031;-60
2023/09/18 00:55:01;;;;;;;13.38;5.25;;;;;;;;;;5104833;28;20035;-61
2023/09/18 00:57:28;;;;;;;12.80;5.65;;;;;;;;;;5105814;28;20039;-60
2023/09/18 00:59:54;;;;;;;15.30;5.43;;;;;;;;;;5087322;28;20039;-60
2023/09/18 01:02:21;;;;;;;12.90;5.43;;;;;;;;;;5083361;28;20046;-60
2023/09/18 01:04:47;;;;;;;15.18;4.95;;;;;;;;;;5085663;28;20383;-58
2023/09/18 01:07:14;;;;;;;14.50;4.93;;;;;;;;;;5104819;28;20054;-60
2023/09/18 01:09:43;;;;;;;12.40;5.18;;;;;;;;;;5088337;28;20105;-59
2023/09/18 01:12:33;;;;;;;10.50;5.05;;;;;;;;;;5103338;28;20043;-59
2023/09/18 01:14:59;;;;;;;12.20;5.00;;;;;;;;;;5084886;28;20052;-61
2023/09/18 01:17:26;;;;;;;13.55;4.68;;;;;;;;;;5104556;28;20503;-60
2023/09/18 01:19:52;;;;;;;21.55;4.90;;;;;;;;;;5088737;28;20051;-59
2023/09/18 01:22:19;;;;;;;9.45;4.75;;;;;;;;;;5087487;28;20054;-60
2023/09/18 01:24:49;;;;;;;15.18;5.00;;;;;;;;;;5105851;28;20031;-59
2023/09/18 01:27:17;;;;;;;10.50;4.72;;;;;;;;;;5102217;28;20391;-59
2023/09/18 01:29:44;;;;;;;19.88;5.10;;;;;;;;;;5102261;28;20042;-60
2023/09/18 01:32:10;;;;;;;19.40;5.05;;;;;;;;;;5082452;28;20044;-60
2023/09/18 01:34:42;;;;;;;12.82;4.88;;;;;;;;;;5085517;28;20044;-59
2023/09/18 01:37:11;;;;;;;15.13;4.38;;;;;;;;;;5105975;28;20036;-60
2023/09/18 01:39:41;;;;;;;14.00;4.68;;;;;;;;;;5105137;28;20035;-60
2023/09/18 01:42:10;;;;;;;24.13;5.03;;;;;;;;;;5086462;28;20036;-60
2023/09/18 01:44:38;;;;;;;16.15;4.13;;;;;;;;;;5104024;28;20047;-60
2023/09/18 01:47:08;;;;;;;16.83;4.70;;;;;;;;;;5084748;28;20048;-59
2023/09/18 01:49:37;;;;;;;13.70;4.72;;;;;;;;;;5084709;28;20040;-60
2023/09/18 01:52:05;;;;;;;13.32;4.65;;;;;;;;;;5086113;28;20024;-60
2023/09/18 01:54:34;;;;;;;13.10;4.57;;;;;;;;;;5102937;28;20036;-60
2023/09/18 01:57:01;;;;;;;11.35;4.60;;;;;;;;;;5102038;28;20645;-60
2023/09/18 01:59:28;;;;;;;19.55;5.05;;;;;;;;;;5084322;28;20040;-60
2023/09/18 02:01:55;;;;;;;12.95;5.18;;;;;;;;;;5085416;28;20059;-60
2023/09/18 02:04:22;;;;;;;13.00;4.70;;;;;;;;;;5104406;28;20442;-59
2023/09/18 02:06:50;;;;;;;10.40;4.95;;;;;;;;;;5101439;28;20434;-59
2023/09/18 02:09:16;;;;;;;9.60;5.18;;;;;;;;;;5107683;28;20396;-59
2023/09/18 02:11:47;;;;;;;12.48;5.15;;;;;;;;;;5089182;28;20042;-60
2023/09/18 02:14:14;;;;;;;8.65;4.93;;;;;;;;;;5091275;28;20031;-60
2023/09/18 02:16:42;;;;;;;14.50;5.55;;;;;;;;;;5092067;28;20044;-60
2023/09/18 02:19:09;;;;;;;13.27;5.43;;;;;;;;;;5109407;28;20032;-60
2023/09/18 02:21:35;;;;;;;14.43;5.00;;;;;;;;;;5104801;28;20044;-59
2023/09/18 02:24:02;;;;;;;12.43;5.28;;;;;;;;;;5106775;28;20051;-59
2023/09/18 02:26:29;;;;;;;9.02;4.90;;;;;;;;;;5106498;28;20387;-59
2023/09/18 02:28:58;;;;;;;9.68;5.55;;;;;;;;;;5087157;28;20406;-59
2023/09/18 02:31:25;;;;;;;17.17;5.40;;;;;;;;;;5087369;28;20047;-60
2023/09/18 02:33:51;;;;;;;10.80;5.22;;;;;;;;;;5109193;28;20042;-59
2023/09/18 02:36:17;;;;;;;11.82;4.75;;;;;;;;;;5108976;28;20048;-58
2023/09/18 02:38:43;;;;;;;14.18;5.53;;;;;;;;;;5090436;28;20548;-60
2023/09/18 02:41:10;;;;;;;11.93;6.00;;;;;;;;;;5107448;28;20036;-59
2023/09/18 02:43:39;;;;;;;9.65;5.10;;;;;;;;;;5088877;28;20039;-59
2023/09/18 02:46:06;;;;;;;15.20;5.22;;;;;;;;;;5106162;28;20051;-59
2023/09/18 02:48:32;;;;;;;11.57;5.97;;;;;;;;;;5089379;28;20031;-58
2023/09/18 02:51:00;;;;;;;20.38;7.57;;;;;;;;;;5089144;28;20040;-58
2023/09/18 02:53:26;;;;;;;14.75;5.40;;;;;;;;;;5090900;28;20051;-59
2023/09/18 02:55:54;;;;;;;12.80;5.50;;;;;;;;;;5083070;28;20051;-59
2023/09/18 02:58:21;;;;;;;12.48;5.05;;;;;;;;;;5087480;28;20043;-59
2023/09/18 03:00:49;;;;;;;13.52;5.78;;;;;;;;;;5088623;28;20074;-58
2023/09/18 03:03:16;;;;;;;13.05;6.40;;;;;;;;;;5088516;28;20027;-59
2023/09/18 03:05:44;;;;;;;13.00;5.18;;;;;;;;;;5088991;28;20070;-59
2023/09/18 03:08:14;;;;;;;10.60;5.10;;;;;;;;;;5106613;28;20030;-59
2023/09/18 03:10:42;;;;;;;12.52;5.38;;;;;;;;;;5086359;28;20044;-59
2023/09/18 03:13:10;;;;;;;17.25;5.40;;;;;;;;;;5088518;28;20032;-59
2023/09/18 03:15:37;;;;;;;11.98;4.80;;;;;;;;;;5106196;28;20043;-58
2023/09/18 03:18:05;;;;;;;11.25;5.25;;;;;;;;;;5070998;28;20043;-60
2023/09/18 03:20:31;;;;;;;13.73;5.07;;;;;;;;;;5088286;28;20050;-59
2023/09/18 03:22:59;;;;;;;13.68;5.15;;;;;;;;;;5083125;28;20048;-59
2023/09/18 03:25:25;;;;;;;14.38;5.80;;;;;;;;;;5082717;28;20051;-60
2023/09/18 03:27:52;;;;;;;14.98;5.43;;;;;;;;;;5102882;28;20027;-59
2023/09/18 03:30:20;;;;;;;17.58;5.68;;;;;;;;;;5086029;28;20043;-59
2023/09/18 03:32:48;;;;;;;14.63;5.15;;;;;;;;;;5089265;28;20038;-59
2023/09/18 03:35:19;;;;;;;11.48;5.40;;;;;;;;;;5088161;28;20043;-58
2023/09/18 03:37:53;;;;;;;16.02;5.63;;;;;;;;;;5071840;28;20031;-58
2023/09/18 03:40:20;;;;;;;12.48;5.78;;;;;;;;;;5091292;28;20402;-61
2023/09/18 03:42:47;;;;;;;14.30;5.80;;;;;;;;;;5107324;28;20227;-60
2023/09/18 03:45:13;;;;;;;11.10;5.45;;;;;;;;;;5086675;28;20422;-60
2023/09/18 03:47:41;;;;;;;22.73;5.95;;;;;;;;;;5089062;28;20047;-61
2023/09/18 03:50:08;;;;;;;17.88;5.32;;;;;;;;;;5107779;28;20069;-58
2023/09/18 03:52:35;;;;;;;14.75;5.45;;;;;;;;;;5106347;28;20027;-59
2023/09/18 03:55:02;;;;;;;14.48;5.65;;;;;;;;;;5088235;28;20424;-58
2023/09/18 03:57:28;;;;;;;21.52;7.03;;;;;;;;;;5088074;28;20402;-58
2023/09/18 03:59:55;;;;;;;16.10;5.32;;;;;;;;;;5089027;28;20039;-59
2023/09/18 04:02:25;;;;;;;11.63;5.38;;;;;;;;;;5088528;28;20043;-58
2023/09/18 04:04:53;;;;;;;15.45;5.65;;;;;;;;;;5088351;28;20031;-59
2023/09/18 04:07:19;;;;;;;11.48;5.30;;;;;;;;;;5086891;28;20528;-59
2023/09/18 04:09:46;;;;;;;15.90;5.32;;;;;;;;;;5106545;28;20399;-59
2023/09/18 04:12:12;;;;;;;17.73;4.93;;;;;;;;;;5106492;28;20043;-59
2023/09/18 04:14:39;;;;;;;15.88;4.32;;;;;;;;;;5091203;28;20032;-59
2023/09/18 04:17:05;;;;;;;19.50;4.97;;;;;;;;;;5102717;28;20419;-59
2023/09/18 04:19:31;;;;;;;20.98;4.90;;;;;;;;;;5086339;28;20533;-59
2023/09/18 04:21:58;;;;;;;17.52;5.03;;;;;;;;;;5091092;28;20050;-59
2023/09/18 04:24:25;;;;;;;21.23;5.00;;;;;;;;;;5107229;28;20031;-60
2023/09/18 04:26:51;;;;;;;18.23;5.20;;;;;;;;;;5085036;28;20066;-58
2023/09/18 04:29:18;;;;;;;18.88;5.00;;;;;;;;;;5084594;28;20062;-58
2023/09/18 04:31:45;;;;;;;23.13;4.90;;;;;;;;;;5087683;28;20031;-59
2023/09/18 04:34:11;;;;;;;24.80;5.03;;;;;;;;;;5087746;28;20066;-61
2023/09/18 04:36:38;;;;;;;28.48;9.40;;;;;;;;;;5090112;28;20035;-60
2023/09/18 04:39:06;;;;;;;25.67;6.25;;;;;;;;;;5090365;28;20039;-59
2023/09/18 04:41:33;;;;;;;22.35;4.88;;;;;;;;;;5086594;28;20027;-59
2023/09/18 04:44:00;;;;;;;27.02;5.20;;;;;;;;;;5088406;28;20044;-59
2023/09/18 04:46:27;;;;;;;24.15;4.88;;;;;;;;;;5093393;28;20039;-58
2023/09/18 04:48:53;;;;;;;19.80;4.93;;;;;;;;;;5086962;28;20047;-59
2023/09/18 04:51:19;;;;;;;32.08;5.05;;;;;;;;;;5106485;28;20529;-59
2023/09/18 04:53:45;;;;;;;25.35;5.00;;;;;;;;;;5104465;28;20027;-59
2023/09/18 04:56:11;;;;;;;19.48;5.20;;;;;;;;;;5088198;28;20024;-60
2023/09/18 04:58:38;;;;;;;16.70;5.00;;;;;;;;;;5085331;28;20031;-57
2023/09/18 05:01:06;;;;;;;18.48;4.75;;;;;;;;;;5086857;28;20045;-56
2023/09/18 05:03:36;;;;;;;21.25;5.90;;;;;;;;;;5083018;28;20044;-58
2023/09/18 05:06:05;;;;;;;23.85;5.15;;;;;;;;;;5086260;28;20058;-59
2023/09/18 05:08:31;;;;;;;32.38;5.25;;;;;;;;;;5103056;28;20043;-59
2023/09/18 05:10:57;;;;;;;21.00;4.60;;;;;;;;;;5088215;28;20513;-58
2023/09/18 05:13:24;;;;;;;20.50;5.38;;;;;;;;;;5084260;28;20494;-58
2023/09/18 05:15:50;;;;;;;23.13;5.85;;;;;;;;;;5103704;28;20023;-58
2023/09/18 05:18:16;;;;;;;17.50;4.75;;;;;;;;;;5102889;28;20507;-58
2023/09/18 05:20:42;;;;;;;24.13;4.88;;;;;;;;;;5104519;28;20031;-57
2023/09/18 05:23:08;;;;;;;25.77;4.70;;;;;;;;;;5103967;28;20056;-59
2023/09/18 05:25:37;;;;;;;21.88;5.80;;;;;;;;;;5101636;28;20028;-58
2023/09/18 05:28:05;;;;;;;18.40;6.03;;;;;;;;;;5103019;28;20063;-58
2023/09/18 05:30:38;;;;;;;27.40;6.40;;;;;;;;;;5103349;28;20051;-58
2023/09/18 05:33:06;;;;;;;18.15;3.95;;;;;;;;;;5101843;28;20387;-58
2023/09/18 05:35:43;;;;;;;23.42;4.82;;;;;;;;;;5104113;28;20044;-58
2023/09/18 05:38:10;;;;;;;26.17;5.63;;;;;;;;;;5102169;28;20048;-58
2023/09/18 05:40:37;;;;;;;33.40;8.43;;;;;;;;;;5102750;28;20043;-58
2023/09/18 05:43:03;;;;;;;19.55;3.63;;;;;;;;;;5096771;28;20090;-58
2023/09/18 05:45:31;;;;;;;20.02;3.22;;;;;;;;;;5104186;28;20051;-58
2023/09/18 05:48:03;;;;;;;15.70;3.50;;;;;;;;;;5102062;28;20416;-58
2023/09/18 05:50:31;;;;;;;18.05;3.50;;;;;;;;;;5099177;28;20039;-58
2023/09/18 05:53:03;;;;;;;18.73;3.22;;;;;;;;;;5103839;28;20044;-58
2023/09/18 05:55:33;;;;;;;21.10;6.45;;;;;;;;;;5101969;28;20036;-58
2023/09/18 05:58:00;;;;;;;14.55;2.83;;;;;;;;;;5100604;28;20032;-56
2023/09/18 06:00:26;;;;;;;20.02;3.30;;;;;;;;;;5083679;28;20556;-58
2023/09/18 06:02:53;;;;;;;18.27;5.93;;;;;;;;;;5081691;28;20048;-59
2023/09/18 06:05:22;;;;;;;29.00;7.20;;;;;;;;;;5101174;28;20055;-58
2023/09/18 06:07:49;;;;;;;13.13;3.53;;;;;;;;;;5098871;28;20044;-58
2023/09/18 06:10:16;;;;;;;9.02;2.53;;;;;;;;;;5104567;28;20038;-58
2023/09/18 06:12:43;;;;;;;16.25;2.60;;;;;;;;;;5102657;28;20031;-58
2023/09/18 06:15:10;;;;;;;13.02;2.47;;;;;;;;;;5102215;28;20032;-58
2023/09/18 06:17:39;;;;;;;11.27;3.00;;;;;;;;;;5078365;28;20044;-58
2023/09/18 06:20:09;;;;;;;14.95;2.92;;;;;;;;;;5098131;28;20054;-58
2023/09/18 06:22:37;;;;;;;15.35;2.60;;;;;;;;;;5099879;28;20040;-58
2023/09/18 06:25:05;;;;;;;12.73;2.42;;;;;;;;;;5097586;28;20031;-58
2023/09/18 06:27:33;;;;;;;14.63;2.90;;;;;;;;;;5084385;28;20031;-58
2023/09/18 06:30:00;;;;;;;15.07;2.60;;;;;;;;;;5103453;28;20494;-58
2023/09/18 06:32:26;;;;;;;11.25;2.63;;;;;;;;;;5103133;28;20043;-58
2023/09/18 06:34:52;;;;;;;9.40;2.10;;;;;;;;;;5099466;28;20047;-59
2023/09/18 06:37:18;;;;;;;11.57;2.40;;;;;;;;;;5078094;28;20407;-58
2023/09/18 06:39:44;;;;;;;17.77;2.80;;;;;;;;;;5103130;28;20050;-59
2023/09/18 06:42:10;;;;;;;12.38;3.55;;;;;;;;;;5103462;28;20027;-59
2023/09/18 06:44:37;;;;;;;11.02;3.17;;;;;;;;;;5077194;28;20053;-59
2023/09/18 06:47:03;;;;;;;12.82;2.33;;;;;;;;;;5103021;28;20418;-59
2023/09/18 06:49:30;;;;;;;12.45;2.30;;;;;;;;;;5109604;28;20051;-58
2023/09/18 06:51:57;;;;;;;11.00;2.67;;;;;;;;;;5098607;28;20045;-58
2023/09/18 06:54:23;;;;;;;12.25;2.72;;;;;;;;;;5100410;28;20126;-59
2023/09/18 06:56:49;;;;;;;13.30;2.30;;;;;;;;;;5088217;28;20054;-59
2023/09/18 06:59:16;;;;;;;13.48;2.45;;;;;;;;;;5109596;27;20032;-59
2023/09/18 07:01:42;;;;;;;12.63;3.08;;;;;;;;;;5102075;27;20044;-59
2023/09/18 07:04:09;;;;;;;14.40;2.90;;;;;;;;;;5104072;27;20058;-59
2023/09/18 07:06:35;;;;;;;21.67;3.70;;;;;;;;;;5104641;28;20054;-59
2023/09/18 07:09:02;;;;;;;16.48;2.67;;;;;;;;;;5107359;27;20036;-59
2023/09/18 07:11:31;;;;;;;22.58;3.33;;;;;;;;;;5106046;28;20048;-58
2023/09/18 07:13:57;;;;;;;14.15;2.78;;;;;;;;;;5103110;28;20050;-59
2023/09/18 07:16:24;;;;;;;12.65;2.67;;;;;;;;;;5106686;28;20036;-57
2023/09/18 07:18:50;;;;;;;11.07;2.25;;;;;;;;;;5073396;28;20047;-59
2023/09/18 07:21:16;;;;;;;15.10;2.58;;;;;;;;;;5103010;28;20046;-59
2023/09/18 07:23:42;;;;;;;9.88;2.53;;;;;;;;;;5105147;28;20035;-59
2023/09/18 07:26:08;;;;;;;16.95;3.28;;;;;;;;;;5106502;28;20028;-58
2023/09/18 07:28:34;;;;;;;19.25;2.90;;;;;;;;;;5106428;28;20043;-59
2023/09/18 07:31:08;;;;;;;14.38;3.38;;;;;;;;;;5087047;28;20510;-59
2023/09/18 07:33:35;;;;;;;18.33;4.80;;;;;;;;;;5106654;28;20467;-60
2023/09/18 07:36:01;;;;;;;16.85;4.00;;;;;;;;;;5106436;28;20032;-59
2023/09/18 07:38:27;;;;;;;24.90;4.55;;;;;;;;;;5106692;28;20035;-59
2023/09/18 07:40:53;;;;;;;16.20;3.33;;;;;;;;;;5102104;28;20462;-59
2023/09/18 07:43:20;;;;;;;19.70;3.65;;;;;;;;;;5102754;28;20063;-59
2023/09/18 07:45:46;;;;;;;15.63;4.05;;;;;;;;;;5103151;28;20039;-58
2023/09/18 07:48:12;;;;;;;25.38;3.95;;;;;;;;;;5105094;28;20027;-59
2023/09/18 07:50:44;;;;;;;21.42;4.45;;;;;;;;;;5104255;28;20060;-59
2023/09/18 07:53:10;;;;;;;13.40;3.50;;;;;;;;;;5104482;28;20043;-58
2023/09/18 07:55:36;;;;;;;17.20;3.45;;;;;;;;;;5103547;28;20422;-58
2023/09/18 07:58:03;;;;;;;11.05;2.85;;;;;;;;;;5103833;28;20514;-59
2023/09/18 08:00:30;;;;;;;12.68;3.25;;;;;;;;;;5102745;28;20069;-59
2023/09/18 08:03:00;;;;;;;17.50;3.50;;;;;;;;;;5099662;28;20044;-59
2023/09/18 08:05:28;;;;;;;16.15;3.88;;;;;;;;;;5101893;28;20039;-59
2023/09/18 08:07:58;;;;;;;14.40;2.97;;;;;;;;;;5084443;28;20043;-59
2023/09/18 08:10:27;;;;;;;13.90;2.97;;;;;;;;;;5106018;28;20051;-58
2023/09/18 08:12:53;;;;;;;11.30;3.28;;;;;;;;;;5104124;27;20094;-59
2023/09/18 08:15:20;;;;;;;13.23;3.10;;;;;;;;;;5105297;28;20054;-59
2023/09/18 08:17:48;;;;;;;13.70;3.08;;;;;;;;;;5087581;28;20486;-59
2023/09/18 08:20:15;;;;;;;7.25;2.42;;;;;;;;;;5106038;28;20032;-58
2023/09/18 08:22:43;;;;;;;12.95;2.50;;;;;;;;;;5104045;28;20027;-58
2023/09/18 08:25:10;;;;;;;13.55;2.80;;;;;;;;;;5103230;28;20383;-58
2023/09/18 08:27:41;;;;;;;12.73;3.15;;;;;;;;;;5105759;28;20055;-58
2023/09/18 08:30:10;;;;;;;8.38;2.50;;;;;;;;;;5102929;28;20038;-59
2023/09/18 08:32:37;;;;;;;9.45;2.55;;;;;;;;;;5105501;28;20034;-59
2023/09/18 08:35:04;;;;;;;14.48;2.33;;;;;;;;;;5089146;28;20043;-59
2023/09/18 08:37:31;;;;;;;12.40;2.38;;;;;;;;;;5106876;28;20043;-59
2023/09/18 08:39:57;;;;;;;13.23;1.98;;;;;;;;;;5102196;28;20040;-58
2023/09/18 08:42:23;;;;;;;8.98;2.00;;;;;;;;;;5104395;28;20032;-58
2023/09/18 08:44:51;;;;;;;10.18;1.85;;;;;;;;;;5102563;28;20035;-59
2023/09/18 08:47:19;;;;;;;10.93;2.10;;;;;;;;;;5105048;28;20046;-58
2023/09/18 08:49:48;;;;;;;12.63;2.05;;;;;;;;;;5103738;28;20560;-58
2023/09/18 08:52:15;;;;;;;11.95;1.70;;;;;;;;;;5105048;28;20453;-58
2023/09/18 08:54:44;;;;;;;7.80;1.80;;;;;;;;;;5099643;28;20069;-59
2023/09/18 08:57:12;;;;;;;7.70;1.85;;;;;;;;;;5104359;28;20050;-59
2023/09/18 08:59:39;;;;;;;6.80;1.60;;;;;;;;;;5099113;28;20035;-58
2023/09/18 09:02:06;;;;;;;5.25;1.42;;;;;;;;;;5102803;28;20039;-58
2023/09/18 09:04:32;;;;;;;5.18;1.40;;;;;;;;;;5085304;28;20028;-58
2023/09/18 09:06:59;;;;;;;5.90;1.20;;;;;;;;;;5097968;27;20055;-59
2023/09/18 09:09:29;;;;;;;7.25;1.25;;;;;;;;;;5095993;27;20031;-58
2023/09/18 09:11:55;;;;;;;9.25;3.53;;;;;;;;;;5097808;28;20490;-59
2023/09/18 09:14:27;;;;;;;5.65;2.13;;;;;;;;;;5100521;27;20058;-58
2023/09/18 09:16:55;;;;;;;8.13;1.75;;;;;;;;;;5098998;27;20047;-58
2023/09/18 09:19:34;;;;;;;3.25;1.20;;;;;;;;;;5102184;27;20391;-58
2023/09/18 09:22:01;;;;;;;5.18;1.25;;;;;;;;;;5096214;28;20034;-57
2023/09/18 09:24:43;;;;;;;3.15;1.15;;;;;;;;;;5105072;27;20047;-58
2023/09/18 09:27:10;;;;;;;2.00;1.02;;;;;;;;;;5083203;28;20031;-58
2023/09/18 09:29:37;;;;;;;1.25;0.85;;;;;;;;;;5084131;28;20521;-58
2023/09/18 09:32:17;;;;;;;2.03;1.05;;;;;;;;;;5101139;28;20458;-58
2023/09/18 09:34:44;;;;;;;2.95;1.10;;;;;;;;;;5098130;28;20047;-59
2023/09/18 09:37:13;;;;;;;7.60;1.92;;;;;;;;;;5106024;27;20044;-58
2023/09/18 09:39:49;;;;;;;7.28;2.58;;;;;;;;;;5107542;27;20035;-57
2023/09/18 09:42:28;;;;;;;3.53;1.17;;;;;;;;;;5106577;28;20039;-58
2023/09/18 09:45:05;;;;;;;4.80;1.33;;;;;;;;;;5111258;28;20052;-58
2023/09/18 09:47:33;;;;;;;4.05;1.15;;;;;;;;;;5101645;28;20054;-58
2023/09/18 09:50:06;;;;;;;4.57;1.15;;;;;;;;;;5104798;28;20031;-58
2023/09/18 09:52:37;;;;;;;2.97;0.90;;;;;;;;;;5099971;28;20418;-58
2023/09/18 09:55:06;;;;;;;2.70;0.90;;;;;;;;;;5102068;28;20031;-58
2023/09/18 09:57:47;;;;;;;4.20;1.00;;;;;;;;;;5098971;28;20040;-58
2023/09/18 10:00:27;;;;;;;2.63;0.65;;;;;;;;;;5100548;28;20081;-57
2023/09/18 10:02:58;;;;;;;7.35;0.90;;;;;;;;;;5104579;28;20054;-58
2023/09/18 10:05:28;;;;;;;3.80;0.98;;;;;;;;;;5102589;28;20031;-58
2023/09/18 10:07:58;;;;;;;4.80;0.55;;;;;;;;;;5101766;28;20039;-59
2023/09/18 10:10:31;;;;;;;1.90;0.60;;;;;;;;;;5105975;28;20032;-58
2023/09/18 10:13:03;;;;;;;1.70;0.60;;;;;;;;;;5103457;28;20525;-58
2023/09/18 10:15:33;;;;;;;2.00;0.60;;;;;;;;;;5104530;28;20411;-58
2023/09/18 10:18:00;;;;;;;2.47;1.27;;;;;;;;;;5100254;28;20036;-59
2023/09/18 10:20:29;;;;;;;3.65;1.33;;;;;;;;;;5096101;28;20047;-58
2023/09/18 10:23:01;;;;;;;2.72;1.00;;;;;;;;;;5097378;28;20059;-59
2023/09/18 10:25:31;;;;;;;3.05;0.43;;;;;;;;;;5104223;28;20043;-58
2023/09/18 10:27:58;;;;;;;;;;;;;;;;;;5105101;27;20048;-59
2023/09/18 10:30:26;;;;;;;1.92;0.50;;;;;;;;;;5108107;28;19919;-59
2023/09/18 10:32:53;;;;;;;1.92;0.68;;;;;;;;;;5101144;27;20027;-59
2023/09/18 10:35:20;;;;;;;1.17;0.40;;;;;;;;;;5106083;28;20658;-58
2023/09/18 10:37:50;;;;;;;1.27;0.60;;;;;;;;;;5107545;28;20048;-58
2023/09/18 10:40:17;;;;;;;0.98;0.75;;;;;;;;;;5107053;28;20414;-58
2023/09/18 10:42:46;;;;;;;1.73;0.68;;;;;;;;;;5105768;28;20479;-58
2023/09/18 10:45:12;;;;;;;1.35;0.80;;;;;;;;;;5106687;28;20039;-58
2023/09/18 10:47:41;;;;;;;1.08;0.80;;;;;;;;;;5106158;28;20043;-58
2023/09/18 10:50:09;;;;;;;3.07;0.80;;;;;;;;;;5104053;28;20043;-58
2023/09/18 10:52:38;;;;;;;1.42;0.60;;;;;;;;;;5104277;28;20039;-59
2023/09/18 10:55:04;;;;;;;2.85;0.77;;;;;;;;;;5102965;28;20153;-58
2023/09/18 10:57:38;;;;;;;4.25;0.93;;;;;;;;;;5106887;28;20048;-59
2023/09/18 11:00:13;;;;;;;1.33;0.80;;;;;;;;;;5105379;28;20034;-58
2023/09/18 11:02:42;;;;;;;3.80;0.80;;;;;;;;;;5102371;28;20780;-58
2023/09/18 11:05:08;;;;;;;3.00;0.80;;;;;;;;;;5093173;28;20034;-58
2023/09/18 11:07:35;;;;;;;3.03;1.13;;;;;;;;;;5086600;28;20031;-58
2023/09/18 11:10:27;;;;;;;2.90;1.10;;;;;;;;;;5105807;27;20047;-58
2023/09/18 11:12:54;;;;;;;4.07;1.67;;;;;;;;;;5105568;27;20027;-58
2023/09/18 11:15:32;;;;;;;2.72;0.98;;;;;;;;;;5105017;28;20072;-57
2023/09/18 11:18:00;;;;;;;1.63;0.90;;;;;;;;;;5103549;28;20499;-58
2023/09/18 11:20:27;;;;;;;5.70;0.85;;;;;;;;;;5104601;28;20035;-58
2023/09/18 11:23:02;;;;;;;2.10;0.90;;;;;;;;;;5104924;28;20052;-58
2023/09/18 11:25:35;;;;;;;2.25;1.10;;;;;;;;;;5106086;28;20376;-58
2023/09/18 11:28:02;;;;;;;5.60;1.48;;;;;;;;;;5105269;28;20056;-58
2023/09/18 11:30:29;;;;;;;4.43;1.00;;;;;;;;;;5103897;28;20043;-58
2023/09/18 11:32:56;;;;;;;6.50;1.20;;;;;;;;;;5101941;28;20023;-58
2023/09/18 11:35:22;;;;;;;2.53;0.93;;;;;;;;;;5107591;28;20032;-58
2023/09/18 11:38:05;;;;;;;2.15;1.23;;;;;;;;;;5105394;28;20054;-58
2023/09/18 11:40:40;;;;;;;3.47;1.05;;;;;;;;;;5084552;28;20031;-58
2023/09/18 11:43:25;;;;;;;6.40;1.00;;;;;;;;;;5103115;28;20031;-58
2023/09/18 11:45:54;;;;;;;3.75;1.50;;;;;;;;;;5102085;28;20031;-59
2023/09/18 11:48:21;;;;;;;5.85;1.70;;;;;;;;;;5105084;28;20039;-58
2023/09/18 11:50:50;;;;;;;3.20;1.30;;;;;;;;;;5102901;28;20522;-58
2023/09/18 11:53:18;;;;;;;4.00;1.00;;;;;;;;;;5101685;28;20494;-58
2023/09/18 11:55:45;;;;;;;4.72;1.23;;;;;;;;;;5100967;28;20043;-58
2023/09/18 11:58:11;;;;;;;1.95;0.90;;;;;;;;;;5103486;28;20039;-59
2023/09/18 12:00:45;;;;;;;3.55;1.30;;;;;;;;;;5102303;28;20044;-58
2023/09/18 12:03:17;;;;;;;2.17;1.17;;;;;;;;;;5078598;28;20505;-58
2023/09/18 12:05:44;;;;;;;2.92;1.38;;;;;;;;;;5107347;28;20023;-58
2023/09/18 12:08:12;;;;;;;4.95;1.80;;;;;;;;;;5105166;28;20039;-58
2023/09/18 12:10:38;;;;;;;3.60;1.48;;;;;;;;;;5100304;28;20047;-58
2023/09/18 12:13:08;;;;;;;3.05;1.40;;;;;;;;;;5079149;28;20050;-58
2023/09/18 12:15:34;;;;;;;2.40;1.30;;;;;;;;;;5096106;28;20048;-58
2023/09/18 12:18:11;;;;;;;3.25;1.35;;;;;;;;;;5105358;28;20062;-58
2023/09/18 12:20:44;;;;;;;8.32;1.50;;;;;;;;;;5105683;28;20104;-58
2023/09/18 12:23:10;;;;;;;3.10;1.58;;;;;;;;;;5104748;28;20031;-58
2023/09/18 12:25:37;;;;;;;4.15;1.50;;;;;;;;;;5106559;28;20031;-58
2023/09/18 12:28:06;;;;;;;4.68;1.60;;;;;;;;;;5065614;28;20048;-58
2023/09/18 12:30:33;;;;;;;5.93;1.48;;;;;;;;;;5096823;28;20629;-57
2023/09/18 12:32:59;;;;;;;3.85;1.23;;;;;;;;;;5095559;28;20039;-57
2023/09/18 12:35:29;;;;;;;4.32;1.45;;;;;;;;;;5093389;28;20048;-59
2023/09/18 12:38:00;;;;;;;3.67;1.27;;;;;;;;;;5081149;28;20058;-58
2023/09/18 12:40:29;;;;;;;2.95;1.10;;;;;;;;;;5086577;28;20036;-59
2023/09/18 12:42:56;;;;;;;3.03;1.57;;;;;;;;;;5100310;28;20046;-59
2023/09/18 12:45:24;;;;;;;4.15;2.20;;;;;;;;;;5102291;28;20521;-59
2023/09/18 12:47:51;;;;;;;7.53;2.92;;;;;;;;;;5101776;28;20043;-59
2023/09/18 12:50:17;;;;;;;3.15;1.40;;;;;;;;;;5104929;28;20044;-59
2023/09/18 12:52:44;;;;;;;4.30;1.73;;;;;;;;;;5085306;28;20430;-59
2023/09/18 12:55:27;;;;;;;5.22;2.33;;;;;;;;;;5100850;28;20051;-59
2023/09/18 12:57:53;;;;;;;4.97;1.80;;;;;;;;;;5101068;28;20044;-59
2023/09/18 13:00:22;;;;;;;3.50;1.38;;;;;;;;;;5102390;28;20039;-59
2023/09/18 13:02:55;;;;;;;7.60;1.45;;;;;;;;;;5100908;28;20491;-59
2023/09/18 13:05:25;;;;;;;4.80;1.42;;;;;;;;;;5090293;28;20123;-59
2023/09/18 13:07:53;;;;;;;6.60;1.60;;;;;;;;;;5095674;28;20039;-59
2023/09/18 13:10:19;;;;;;;2.67;1.40;;;;;;;;;;5098866;28;20032;-59
2023/09/18 13:12:47;;;;;;;3.65;1.35;;;;;;;;;;5094666;28;20032;-59
2023/09/18 13:15:13;;;;;;;2.85;1.52;;;;;;;;;;5103362;28;20043;-59
2023/09/18 13:17:45;;;;;;;5.28;1.30;;;;;;;;;;5102513;28;20032;-58
2023/09/18 13:20:14;;;;;;;7.22;1.30;;;;;;;;;;5103908;28;20050;-57
2023/09/18 13:22:41;;;;;;;4.93;1.33;;;;;;;;;;5098504;28;20039;-57
2023/09/18 13:25:10;;;;;;;2.90;1.35;;;;;;;;;;5081977;28;20050;-59
2023/09/18 13:27:37;;;;;;;4.75;1.20;;;;;;;;;;5103818;28;20043;-59
2023/09/18 13:30:09;;;;;;;2.08;1.50;;;;;;;;;;5101160;28;20043;-58
2023/09/18 13:32:36;;;;;;;5.40;2.75;;;;;;;;;;5103397;28;20043;-59
2023/09/18 13:35:05;;;;;;;11.63;4.80;;;;;;;;;;5100469;28;20404;-59
2023/09/18 13:37:32;;;;;;;;;;;;;;;;;;5104029;28;20047;-59
2023/09/18 13:40:00;;;;;;;2.92;1.60;;;;;;;;;;5101958;28;19918;-59
2023/09/18 13:42:29;;;;;;;3.63;1.67;;;;;;;;;;5100325;28;20051;-59
2023/09/18 13:45:00;;;;;;;2.97;1.80;;;;;;;;;;5097545;28;20048;-58
2023/09/18 13:47:29;;;;;;;3.78;1.45;;;;;;;;;;5103376;28;20034;-60
2023/09/18 13:49:59;;;;;;;4.85;1.85;;;;;;;;;;5103742;28;20040;-59
2023/09/18 13:52:26;;;;;;;5.32;1.30;;;;;;;;;;5101864;28;20036;-59
2023/09/18 13:54:53;;;;;;;3.90;1.65;;;;;;;;;;5101223;28;20048;-58
2023/09/18 13:57:20;;;;;;;4.18;1.70;;;;;;;;;;5083888;28;20042;-59
2023/09/18 13:59:48;;;;;;;6.88;1.50;;;;;;;;;;5103263;28;20043;-58
2023/09/18 14:02:15;;;;;;;3.20;1.20;;;;;;;;;;5102678;28;20047;-58
2023/09/18 14:04:42;;;;;;;4.32;1.35;;;;;;;;;;5105488;28;20048;-59
2023/09/18 14:07:09;;;;;;;3.80;1.40;;;;;;;;;;5086837;28;20542;-58
2023/09/18 14:09:35;;;;;;;4.90;1.45;;;;;;;;;;5106812;28;20043;-58
2023/09/18 14:12:02;;;;;;;5.10;2.03;;;;;;;;;;5086245;28;20043;-59
2023/09/18 14:14:29;;;;;;;7.70;1.65;;;;;;;;;;5106891;28;20375;-60
2023/09/18 14:17:16;;;;;;;2.47;1.10;;;;;;;;;;5105454;28;20394;-58
2023/09/18 14:19:42;;;;;;;3.80;1.03;;;;;;;;;;5107939;28;20032;-58
2023/09/18 14:22:08;;;;;;;1.98;1.23;;;;;;;;;;5101514;28;20055;-60
2023/09/18 14:24:35;;;;;;;2.63;1.20;;;;;;;;;;5106202;28;20043;-58
2023/09/18 14:27:02;;;;;;;3.97;1.67;;;;;;;;;;5087543;28;20043;-60
2023/09/18 14:29:30;;;;;;;3.72;1.30;;;;;;;;;;5107734;28;20421;-58
2023/09/18 14:31:57;;;;;;;2.38;1.10;;;;;;;;;;5099728;28;20046;-58
2023/09/18 14:34:23;;;;;;;3.92;1.63;;;;;;;;;;5100034;28;20035;-58
2023/09/18 14:36:49;;;;;;;3.95;1.40;;;;;;;;;;5099787;27;20070;-58
2023/09/18 14:39:15;;;;;;;3.03;1.45;;;;;;;;;;5104502;27;20534;-58
2023/09/18 14:41:41;;;;;;;2.17;1.00;;;;;;;;;;5106753;27;20031;-59